Time;durP1;ratioP1;P1;durP2;ratioP2;P2;SDS_P1;SDS_P2;PMS_P1;PMS_P2;Temp;Humidity;BMP_temperature;BMP_pressure;BME280_temperature;BME280_humidity;BME280_pressure;Samples;Min_cycle;Max_cycle;Signal;HPM_P1;HPM_P2
2023/06/15 00:00:23;;;;;;;13.27;7.15;;;17.70;96.40;;;;;;5034658;28;20080;-54
2023/06/15 00:02:50;;;;;;;14.18;7.20;;;17.60;96.50;;;;;;5034446;28;20037;-50
2023/06/15 00:05:17;;;;;;;14.82;7.15;;;17.60;96.60;;;;;;5034531;28;20037;-48
2023/06/15 00:07:44;;;;;;;12.73;7.18;;;17.50;96.60;;;;;;5034986;28;20039;-50
2023/06/15 00:10:11;;;;;;;13.40;6.68;;;17.50;96.60;;;;;;5033542;28;20046;-49
2023/06/15 00:12:38;;;;;;;12.75;6.72;;;17.50;96.70;;;;;;5034140;28;20104;-50
2023/06/15 00:15:05;;;;;;;10.57;6.38;;;17.40;96.70;;;;;;5034464;28;20076;-53
2023/06/15 00:17:35;;;;;;;10.68;6.38;;;17.40;96.80;;;;;;5033376;28;20049;-53
2023/06/15 00:20:04;;;;;;;11.40;6.35;;;17.40;96.90;;;;;;5034088;28;20574;-50
2023/06/15 00:22:31;;;;;;;9.25;6.20;;;17.40;96.80;;;;;;5034307;28;20052;-51
2023/06/15 00:24:57;;;;;;;9.40;5.82;;;17.30;97.00;;;;;;5034387;28;20084;-51
2023/06/15 00:27:24;;;;;;;9.95;5.45;;;17.30;96.90;;;;;;5034517;28;20048;-49
2023/06/15 00:29:51;;;;;;;10.65;5.45;;;17.30;97.00;;;;;;5034376;28;20452;-49
2023/06/15 00:32:18;;;;;;;10.48;5.78;;;17.30;97.00;;;;;;5016803;28;20051;-49
2023/06/15 00:34:45;;;;;;;8.70;5.55;;;17.20;96.90;;;;;;5033875;28;20125;-49
2023/06/15 00:37:12;;;;;;;9.95;5.55;;;17.20;96.80;;;;;;5032750;28;20045;-52
2023/06/15 00:39:38;;;;;;;8.20;5.57;;;17.10;97.00;;;;;;5034148;28;20048;-53
2023/06/15 00:42:05;;;;;;;10.55;5.88;;;17.10;97.00;;;;;;5032336;28;20045;-49
2023/06/15 00:44:32;;;;;;;11.25;6.20;;;17.00;97.20;;;;;;5033896;28;20440;-52
2023/06/15 00:46:59;;;;;;;11.30;5.80;;;17.00;97.20;;;;;;5032914;28;20040;-51
2023/06/15 00:49:26;;;;;;;11.13;5.82;;;17.00;97.30;;;;;;5016301;28;20049;-49
2023/06/15 00:51:52;;;;;;;11.73;5.53;;;17.00;97.40;;;;;;5033847;28;20041;-52
2023/06/15 00:54:21;;;;;;;8.52;5.35;;;17.00;97.50;;;;;;5034045;28;20056;-53
2023/06/15 00:56:48;;;;;;;10.65;5.97;;;16.90;97.50;;;;;;5033129;28;20451;-51
2023/06/15 00:59:15;;;;;;;9.93;5.47;;;16.90;97.50;;;;;;5032237;28;20058;-51
2023/06/15 01:01:41;;;;;;;9.30;5.70;;;16.90;97.50;;;;;;5033958;28;20063;-53
2023/06/15 01:04:08;;;;;;;8.43;5.57;;;16.80;97.50;;;;;;5033502;28;20068;-51
2023/06/15 01:06:41;;;;;;;12.57;6.05;;;16.70;97.60;;;;;;5038346;28;20040;-53
2023/06/15 01:09:08;;;;;;;8.27;5.90;;;16.60;97.90;;;;;;5052399;28;20048;-52
2023/06/15 01:11:35;;;;;;;9.50;5.88;;;16.50;98.30;;;;;;5052916;28;20044;-51
2023/06/15 01:14:02;;;;;;;8.65;5.95;;;16.40;98.20;;;;;;5053242;28;20041;-54
2023/06/15 01:16:28;;;;;;;9.07;6.28;;;16.40;98.20;;;;;;5052397;28;20064;-48
2023/06/15 01:18:59;;;;;;;13.23;6.38;;;16.40;98.20;;;;;;5053440;28;20120;-52
2023/06/15 01:21:25;;;;;;;9.50;6.05;;;16.40;98.30;;;;;;5053735;28;20395;-51
2023/06/15 01:23:52;;;;;;;8.48;5.80;;;16.40;98.30;;;;;;5052148;28;20044;-50
2023/06/15 01:26:20;;;;;;;10.45;6.38;;;16.40;98.20;;;;;;5051809;28;20049;-53
2023/06/15 01:28:47;;;;;;;15.00;6.13;;;16.30;98.30;;;;;;5052394;28;20099;-51
2023/06/15 01:31:14;;;;;;;10.38;6.30;;;16.30;98.30;;;;;;5053009;28;20041;-54
2023/06/15 01:33:41;;;;;;;8.27;5.93;;;16.30;98.30;;;;;;5052133;28;20041;-50
2023/06/15 01:36:09;;;;;;;10.38;6.30;;;16.20;98.40;;;;;;5052039;28;20041;-51
2023/06/15 01:38:36;;;;;;;12.27;6.05;;;16.20;98.60;;;;;;5052293;28;20045;-50
2023/06/15 01:41:03;;;;;;;9.80;6.15;;;16.20;98.60;;;;;;5052028;28;20431;-51
2023/06/15 01:43:30;;;;;;;9.85;6.38;;;16.10;98.60;;;;;;5052018;28;20041;-52
2023/06/15 01:45:56;;;;;;;10.45;7.32;;;16.10;98.90;;;;;;5053031;28;20341;-52
2023/06/15 01:48:25;;;;;;;8.85;5.88;;;15.90;99.00;;;;;;5051825;28;20407;-49
2023/06/15 01:50:51;;;;;;;8.27;6.00;;;15.80;99.40;;;;;;5053033;28;20037;-49
2023/06/15 01:53:19;;;;;;;11.40;6.28;;;15.80;99.50;;;;;;5053025;28;20133;-54
2023/06/15 01:55:46;;;;;;;8.73;5.80;;;15.80;99.30;;;;;;5053020;28;20476;-50
2023/06/15 01:58:16;;;;;;;11.48;6.15;;;15.70;99.30;;;;;;5051824;28;20057;-52
2023/06/15 02:00:43;;;;;;;9.15;6.00;;;15.50;99.50;;;;;;5035178;28;20076;-49
2023/06/15 02:03:11;;;;;;;10.25;6.63;;;15.50;99.80;;;;;;5052844;28;20033;-53
2023/06/15 02:05:39;;;;;;;12.02;6.32;;;15.50;99.90;;;;;;5053236;28;20041;-53
2023/06/15 02:08:07;;;;;;;10.00;6.13;;;15.50;99.70;;;;;;5054211;28;20045;-52
2023/06/15 02:10:34;;;;;;;12.07;7.07;;;15.50;99.60;;;;;;5055566;28;20041;-54
2023/06/15 02:13:00;;;;;;;11.63;6.78;;;15.60;99.70;;;;;;5055444;28;20037;-50
2023/06/15 02:15:27;;;;;;;12.30;6.68;;;15.60;99.80;;;;;;5056857;28;20052;-52
2023/06/15 02:17:59;;;;;;;9.55;6.38;;;15.60;99.70;;;;;;5055745;28;20170;-52
2023/06/15 02:20:27;;;;;;;13.50;6.60;;;15.50;99.70;;;;;;5055725;28;20530;-54
2023/06/15 02:22:57;;;;;;;15.40;6.93;;;15.40;99.90;;;;;;5054998;28;20133;-54
2023/06/15 02:25:24;;;;;;;10.48;6.88;;;15.40;99.90;;;;;;5055426;28;20040;-50
2023/06/15 02:27:51;;;;;;;8.80;7.05;;;15.40;99.90;;;;;;5055539;28;20048;-52
2023/06/15 02:30:18;;;;;;;10.63;7.13;;;15.40;99.90;;;;;;5056346;28;20045;-52
2023/06/15 02:32:45;;;;;;;14.52;7.10;;;15.30;99.90;;;;;;5056691;28;20063;-50
2023/06/15 02:35:12;;;;;;;10.40;6.88;;;15.20;99.90;;;;;;5056692;28;20083;-52
2023/06/15 02:37:39;;;;;;;8.00;6.22;;;15.20;99.90;;;;;;5055437;28;20041;-54
2023/06/15 02:40:06;;;;;;;9.48;6.72;;;15.20;99.90;;;;;;5055000;28;20397;-50
2023/06/15 02:42:33;;;;;;;13.15;7.43;;;15.20;99.90;;;;;;5055780;28;20041;-47
2023/06/15 02:45:01;;;;;;;11.13;7.03;;;15.10;99.90;;;;;;5056488;28;20041;-47
2023/06/15 02:47:29;;;;;;;10.35;7.30;;;15.10;99.90;;;;;;5054804;28;20052;-46
2023/06/15 02:49:59;;;;;;;11.13;7.65;;;15.10;99.90;;;;;;5038213;28;20045;-47
2023/06/15 02:52:32;;;;;;;12.13;6.43;;;15.00;99.90;;;;;;5054871;28;20045;-48
2023/06/15 02:55:00;;;;;;;9.90;7.05;;;15.00;99.90;;;;;;5054498;28;20049;-46
2023/06/15 02:57:28;;;;;;;11.70;6.55;;;15.00;99.90;;;;;;5054214;28;20496;-55
2023/06/15 03:00:17;;;;;;;11.48;6.72;;;15.00;99.90;;;;;;5055409;28;20052;-49
2023/06/15 03:02:55;;;;;;;10.10;6.03;;;15.00;99.90;;;;;;5054632;28;20045;-54
2023/06/15 03:05:26;;;;;;;8.77;5.65;;;14.90;99.90;;;;;;5054213;28;20048;-50
2023/06/15 03:07:56;;;;;;;8.70;5.65;;;14.80;99.90;;;;;;5054076;28;20095;-49
2023/06/15 03:10:27;;;;;;;9.07;5.55;;;14.80;99.90;;;;;;5038119;28;20442;-46
2023/06/15 03:12:54;;;;;;;11.75;5.93;;;14.80;99.90;;;;;;5055032;28;20090;-47
2023/06/15 03:15:22;;;;;;;8.65;5.72;;;14.70;99.90;;;;;;5054304;28;20396;-48
2023/06/15 03:17:49;;;;;;;8.48;5.90;;;14.70;99.90;;;;;;5053733;28;20052;-46
2023/06/15 03:20:21;;;;;;;10.70;6.00;;;14.70;99.90;;;;;;5054490;28;20428;-48
2023/06/15 03:22:49;;;;;;;11.77;5.80;;;14.70;99.90;;;;;;5053737;28;20033;-48
2023/06/15 03:25:16;;;;;;;9.43;5.70;;;14.70;99.90;;;;;;5055483;28;20517;-47
2023/06/15 03:27:44;;;;;;;9.63;6.43;;;14.60;99.90;;;;;;5055534;28;20041;-49
2023/06/15 03:30:15;;;;;;;9.88;5.70;;;14.60;99.90;;;;;;5054157;28;20557;-49
2023/06/15 03:32:42;;;;;;;9.77;6.10;;;14.60;99.90;;;;;;5055133;28;20071;-46
2023/06/15 03:35:12;;;;;;;8.88;5.97;;;14.60;99.90;;;;;;5053958;28;20200;-46
2023/06/15 03:37:40;;;;;;;10.55;6.35;;;14.50;99.90;;;;;;5054187;28;20041;-50
2023/06/15 03:40:07;;;;;;;8.25;5.75;;;14.50;99.90;;;;;;5054972;28;20484;-49
2023/06/15 03:42:35;;;;;;;10.23;6.20;;;14.40;99.90;;;;;;5053796;28;20392;-48
2023/06/15 03:45:02;;;;;;;11.95;5.90;;;14.40;99.90;;;;;;5053733;28;20037;-48
2023/06/15 03:47:29;;;;;;;9.32;6.35;;;14.40;99.90;;;;;;5054119;28;20044;-46
2023/06/15 03:49:55;;;;;;;9.32;5.95;;;14.40;99.90;;;;;;5053660;28;20033;-50
2023/06/15 03:52:23;;;;;;;10.63;6.00;;;14.40;99.90;;;;;;5053746;28;20423;-52
2023/06/15 03:54:49;;;;;;;9.75;6.10;;;14.40;99.90;;;;;;5054058;28;20036;-51
2023/06/15 03:57:17;;;;;;;9.25;5.68;;;14.40;99.90;;;;;;5053504;28;20052;-47
2023/06/15 03:59:45;;;;;;;9.60;6.28;;;14.40;99.90;;;;;;5037453;28;20068;-48
2023/06/15 04:02:12;;;;;;;9.85;6.45;;;14.40;99.90;;;;;;5053698;28;20045;-50
2023/06/15 04:04:40;;;;;;;11.05;5.93;;;14.30;99.90;;;;;;5053661;28;20052;-48
2023/06/15 04:07:08;;;;;;;10.77;6.00;;;14.40;99.90;;;;;;5053383;28;20049;-47
2023/06/15 04:09:36;;;;;;;10.20;6.20;;;14.30;99.90;;;;;;5053453;28;20069;-46
2023/06/15 04:12:02;;;;;;;8.25;6.10;;;14.40;99.90;;;;;;5052855;28;20559;-47
2023/06/15 04:14:30;;;;;;;7.55;5.53;;;14.30;99.90;;;;;;5053025;28;20105;-48
2023/06/15 04:16:57;;;;;;;7.70;5.50;;;14.40;99.90;;;;;;5053195;28;20049;-50
2023/06/15 04:19:25;;;;;;;7.88;5.85;;;14.40;99.90;;;;;;5053548;28;20029;-53
2023/06/15 04:21:55;;;;;;;9.80;5.90;;;14.40;99.90;;;;;;5053033;28;20045;-52
2023/06/15 04:24:22;;;;;;;13.20;6.30;;;14.40;99.90;;;;;;5053113;28;20072;-50
2023/06/15 04:26:49;;;;;;;7.70;5.80;;;14.40;99.90;;;;;;5053235;28;20051;-49
2023/06/15 04:29:18;;;;;;;10.38;6.15;;;14.40;99.90;;;;;;5052623;28;20045;-49
2023/06/15 04:31:46;;;;;;;8.60;6.05;;;14.40;99.90;;;;;;5036621;28;20408;-47
2023/06/15 04:34:17;;;;;;;12.13;6.10;;;14.50;99.90;;;;;;5053125;28;20120;-48
2023/06/15 04:36:44;;;;;;;9.98;6.68;;;14.70;99.90;;;;;;5036407;28;20076;-48
2023/06/15 04:39:13;;;;;;;12.02;5.78;;;14.90;99.90;;;;;;5052850;28;20507;-48
2023/06/15 04:41:40;;;;;;;9.20;5.40;;;15.10;99.90;;;;;;5053172;28;20045;-48
2023/06/15 04:44:08;;;;;;;12.90;5.82;;;15.20;99.80;;;;;;5052390;28;20059;-51
2023/06/15 04:46:39;;;;;;;7.43;5.35;;;15.40;99.70;;;;;;5054001;28;20152;-50
2023/06/15 04:49:07;;;;;;;8.15;5.05;;;15.60;99.50;;;;;;5036249;28;20052;-53
2023/06/15 04:51:35;;;;;;;7.13;5.70;;;15.70;99.10;;;;;;5036606;28;20400;-48
2023/06/15 04:54:02;;;;;;;8.48;5.25;;;15.90;99.20;;;;;;5053991;28;20044;-50
2023/06/15 04:56:29;;;;;;;9.32;5.03;;;16.10;98.80;;;;;;5053087;28;20067;-52
2023/06/15 04:58:56;;;;;;;10.77;5.55;;;16.10;98.80;;;;;;5053762;28;20057;-53
2023/06/15 05:01:25;;;;;;;8.00;4.78;;;16.20;98.90;;;;;;5052611;28;20041;-52
2023/06/15 05:03:54;;;;;;;8.40;5.03;;;16.40;98.70;;;;;;5052551;28;20051;-48
2023/06/15 05:06:22;;;;;;;7.70;5.07;;;16.50;98.50;;;;;;5052619;28;20041;-51
2023/06/15 05:08:49;;;;;;;8.00;5.10;;;16.60;98.10;;;;;;5052449;28;20395;-54
2023/06/15 05:11:16;;;;;;;9.75;4.47;;;16.60;98.10;;;;;;5036417;28;20037;-49
2023/06/15 05:13:44;;;;;;;11.05;5.10;;;16.70;98.40;;;;;;5052680;28;20045;-52
2023/06/15 05:16:10;;;;;;;8.30;4.60;;;16.80;98.50;;;;;;5052435;28;20124;-48
2023/06/15 05:18:39;;;;;;;10.20;5.22;;;16.90;98.60;;;;;;5053699;28;20040;-49
2023/06/15 05:21:05;;;;;;;13.40;5.15;;;17.00;98.50;;;;;;5052314;28;20045;-51
2023/06/15 05:23:36;;;;;;;11.20;5.65;;;17.10;98.80;;;;;;5052379;28;20492;-52
2023/06/15 05:26:06;;;;;;;14.23;5.40;;;17.20;98.90;;;;;;5036516;28;20048;-50
2023/06/15 05:28:53;;;;;;;11.32;5.45;;;17.20;99.00;;;;;;5053766;28;20045;-55
2023/06/15 05:31:20;;;;;;;10.88;4.82;;;17.30;98.90;;;;;;5052293;28;20037;-51
2023/06/15 05:33:48;;;;;;;12.75;5.32;;;17.20;99.20;;;;;;5051855;28;20055;-49
2023/06/15 05:36:15;;;;;;;13.50;5.40;;;17.20;99.30;;;;;;5053440;28;20037;-49
2023/06/15 05:39:02;;;;;;;8.68;5.20;;;17.30;99.20;;;;;;5052213;28;20047;-53
2023/06/15 05:41:29;;;;;;;10.32;5.30;;;17.30;99.30;;;;;;5054489;28;20045;-55
2023/06/15 05:43:56;;;;;;;13.50;5.50;;;17.30;99.20;;;;;;5055873;28;20051;-54
2023/06/15 05:46:23;;;;;;;9.52;5.13;;;17.30;99.20;;;;;;5056606;28;20033;-51
2023/06/15 05:48:50;;;;;;;10.68;5.00;;;17.40;99.30;;;;;;5057139;28;20037;-50
2023/06/15 05:51:17;;;;;;;13.02;5.20;;;17.50;99.30;;;;;;5055909;28;20124;-48
2023/06/15 05:53:44;;;;;;;9.68;4.47;;;17.60;98.90;;;;;;5055884;28;20049;-51
2023/06/15 05:56:11;;;;;;;12.13;5.70;;;17.70;98.80;;;;;;5056225;28;20043;-48
2023/06/15 05:58:38;;;;;;;14.55;4.82;;;17.70;98.70;;;;;;5056589;28;20084;-46
2023/06/15 06:01:05;;;;;;;14.38;4.93;;;17.80;98.70;;;;;;5057505;28;20044;-47
2023/06/15 06:03:32;;;;;;;9.48;4.90;;;17.90;98.80;;;;;;5056709;28;20522;-49
2023/06/15 06:06:01;;;;;;;10.90;4.95;;;18.00;98.50;;;;;;5055881;28;20048;-47
2023/06/15 06:08:28;;;;;;;11.05;5.63;;;18.00;98.30;;;;;;5057013;28;20120;-47
2023/06/15 06:10:55;;;;;;;14.20;5.38;;;18.00;98.40;;;;;;5072260;28;20545;-47
2023/06/15 06:13:34;;;;;;;11.90;5.50;;;18.00;98.50;;;;;;5055724;28;20041;-48
2023/06/15 06:16:02;;;;;;;12.15;5.57;;;18.00;98.30;;;;;;5055381;28;20079;-50
2023/06/15 06:18:28;;;;;;;15.23;5.40;;;17.90;98.40;;;;;;5056800;28;20051;-51
2023/06/15 06:20:56;;;;;;;12.52;5.60;;;17.80;98.60;;;;;;5057090;28;20383;-49
2023/06/15 06:23:23;;;;;;;18.13;6.07;;;17.70;98.70;;;;;;5055362;28;20037;-49
2023/06/15 06:25:51;;;;;;;10.30;5.35;;;17.70;98.80;;;;;;5055127;28;20128;-52
2023/06/15 06:28:19;;;;;;;12.32;5.47;;;17.60;99.00;;;;;;5055727;28;20045;-48
2023/06/15 06:30:45;;;;;;;12.27;5.50;;;17.50;98.90;;;;;;5055502;28;20076;-54
2023/06/15 06:33:12;;;;;;;12.35;5.50;;;17.50;99.10;;;;;;5054948;28;20049;-50
2023/06/15 06:35:39;;;;;;;15.85;5.20;;;17.50;99.20;;;;;;5056355;28;20041;-51
2023/06/15 06:38:06;;;;;;;14.52;5.75;;;17.50;99.30;;;;;;5056561;28;20124;-51
2023/06/15 06:40:33;;;;;;;13.15;5.70;;;17.50;99.30;;;;;;5056365;28;20148;-50
2023/06/15 06:42:59;;;;;;;13.52;6.10;;;17.60;99.40;;;;;;5056167;28;20037;-53
2023/06/15 06:45:26;;;;;;;15.95;5.90;;;17.60;99.20;;;;;;5055959;28;20039;-51
2023/06/15 06:47:56;;;;;;;17.95;5.85;;;17.70;99.20;;;;;;5055870;28;20443;-53
2023/06/15 06:50:23;;;;;;;9.73;5.80;;;17.70;99.10;;;;;;5071815;28;20083;-47
2023/06/15 06:52:50;;;;;;;12.20;6.22;;;17.70;99.10;;;;;;5055301;28;20037;-53
2023/06/15 06:55:16;;;;;;;16.10;6.10;;;17.80;99.10;;;;;;5055690;28;20041;-51
2023/06/15 06:57:43;;;;;;;16.80;6.07;;;17.70;99.10;;;;;;5055498;28;20060;-52
2023/06/15 07:00:10;;;;;;;11.80;5.65;;;17.80;99.20;;;;;;5054941;28;20056;-53
2023/06/15 07:02:37;;;;;;;9.60;5.53;;;17.80;99.20;;;;;;5056134;28;20037;-48
2023/06/15 07:05:04;;;;;;;12.73;5.60;;;17.80;99.20;;;;;;5055966;28;20093;-51
2023/06/15 07:07:31;;;;;;;13.98;5.53;;;17.90;99.10;;;;;;5055868;28;20434;-53
2023/06/15 07:09:58;;;;;;;16.33;5.70;;;17.90;99.00;;;;;;5055749;28;20041;-48
2023/06/15 07:12:25;;;;;;;17.35;5.45;;;18.00;98.90;;;;;;5055666;28;20484;-50
2023/06/15 07:14:51;;;;;;;13.65;6.05;;;18.00;98.90;;;;;;5055865;28;20049;-51
2023/06/15 07:17:18;;;;;;;16.30;6.00;;;18.10;99.10;;;;;;5056023;28;20532;-50
2023/06/15 07:19:45;;;;;;;12.70;5.50;;;18.10;99.00;;;;;;5054973;28;20049;-48
2023/06/15 07:22:12;;;;;;;14.88;5.88;;;18.20;98.80;;;;;;5054571;28;20041;-50
2023/06/15 07:24:39;;;;;;;17.50;6.80;;;18.20;98.80;;;;;;5053533;28;20657;-52
2023/06/15 07:27:06;;;;;;;12.30;5.90;;;18.20;98.60;;;;;;5053563;28;20047;-54
2023/06/15 07:29:33;;;;;;;15.73;5.53;;;18.10;98.80;;;;;;5053614;28;20041;-53
2023/06/15 07:32:00;;;;;;;15.38;5.82;;;18.30;98.80;;;;;;5053902;28;20041;-53
2023/06/15 07:34:27;;;;;;;13.75;5.95;;;18.30;98.80;;;;;;5053871;28;20049;-52
2023/06/15 07:36:54;;;;;;;15.07;6.07;;;18.40;98.70;;;;;;5054150;28;20044;-49
2023/06/15 07:39:21;;;;;;;18.35;6.10;;;18.50;98.70;;;;;;5052560;28;20037;-50
2023/06/15 07:41:47;;;;;;;16.40;6.13;;;18.50;98.50;;;;;;5054877;28;20041;-50
2023/06/15 07:44:14;;;;;;;13.30;5.60;;;18.60;98.40;;;;;;5053557;28;20073;-47
2023/06/15 07:46:41;;;;;;;13.02;5.68;;;18.60;98.50;;;;;;5054815;28;20041;-51
2023/06/15 07:49:08;;;;;;;11.98;5.60;;;18.50;98.40;;;;;;5055039;28;20120;-52
2023/06/15 07:51:35;;;;;;;14.38;5.75;;;18.60;98.40;;;;;;5055120;28;20083;-47
2023/06/15 07:54:13;;;;;;;15.57;6.25;;;18.70;98.30;;;;;;5054952;28;20468;-53
2023/06/15 07:56:40;;;;;;;14.48;5.97;;;18.70;98.10;;;;;;5054766;28;20048;-54
2023/06/15 07:59:07;;;;;;;16.75;5.78;;;18.70;98.10;;;;;;5054676;28;20081;-50
2023/06/15 08:01:33;;;;;;;16.13;6.00;;;18.80;98.30;;;;;;5054757;28;20056;-53
2023/06/15 08:04:00;;;;;;;17.13;5.85;;;18.80;97.90;;;;;;5054049;28;20053;-51
2023/06/15 08:06:27;;;;;;;13.27;5.68;;;18.90;97.90;;;;;;5054183;28;20037;-50
2023/06/15 08:08:54;;;;;;;14.43;5.75;;;18.90;98.00;;;;;;5054561;28;20123;-53
2023/06/15 08:11:21;;;;;;;18.45;5.30;;;19.00;97.80;;;;;;5054645;28;20041;-50
2023/06/15 08:13:48;;;;;;;16.45;5.63;;;19.00;97.80;;;;;;5054581;28;20047;-50
2023/06/15 08:16:15;;;;;;;13.07;6.00;;;19.10;97.60;;;;;;5053198;28;20044;-53
2023/06/15 08:18:42;;;;;;;17.52;5.93;;;19.10;97.40;;;;;;5054409;28;20041;-55
2023/06/15 08:21:09;;;;;;;12.68;5.90;;;19.20;97.30;;;;;;5053382;28;20124;-54
2023/06/15 08:23:36;;;;;;;11.23;5.28;;;19.30;97.30;;;;;;5053955;28;20049;-50
2023/06/15 08:26:03;;;;;;;30.77;5.85;;;19.30;97.40;;;;;;5053281;28;20045;-48
2023/06/15 08:28:30;;;;;;;17.90;5.55;;;19.50;97.20;;;;;;5054613;28;20061;-49
2023/06/15 08:31:19;;;;;;;15.57;5.65;;;19.60;97.00;;;;;;5054615;28;20045;-50
2023/06/15 08:33:46;;;;;;;19.45;6.38;;;19.70;97.10;;;;;;5052933;28;20118;-51
2023/06/15 08:36:12;;;;;;;15.25;5.85;;;19.70;96.50;;;;;;5054605;28;20068;-55
2023/06/15 08:38:40;;;;;;;14.45;5.70;;;19.80;96.50;;;;;;5054448;28;20486;-48
2023/06/15 08:41:07;;;;;;;12.60;5.57;;;19.80;96.30;;;;;;5053040;28;20064;-47
2023/06/15 08:43:33;;;;;;;16.05;6.03;;;19.90;95.70;;;;;;5053889;28;20071;-50
2023/06/15 08:46:00;;;;;;;14.48;5.72;;;19.90;95.50;;;;;;5053893;28;20044;-52
2023/06/15 08:48:27;;;;;;;12.73;5.00;;;19.90;95.40;;;;;;5052746;28;20037;-51
2023/06/15 08:50:54;;;;;;;15.73;5.78;;;20.00;95.40;;;;;;5054319;28;20045;-55
2023/06/15 08:53:21;;;;;;;13.82;5.90;;;20.00;95.30;;;;;;5053923;28;20102;-56
2023/06/15 08:55:48;;;;;;;14.40;5.32;;;20.10;95.00;;;;;;5053820;28;20041;-49
2023/06/15 08:58:15;;;;;;;13.25;6.20;;;20.10;95.10;;;;;;5053770;28;20346;-48
2023/06/15 09:00:43;;;;;;;16.02;5.13;;;20.20;95.20;;;;;;5053884;28;20425;-52
2023/06/15 09:03:10;;;;;;;15.10;5.72;;;20.30;95.20;;;;;;5054011;28;20041;-54
2023/06/15 09:05:37;;;;;;;12.35;5.10;;;20.30;95.10;;;;;;5054005;28;20067;-49
2023/06/15 09:08:04;;;;;;;13.55;5.22;;;20.30;94.50;;;;;;5053939;28;20068;-56
2023/06/15 09:10:31;;;;;;;10.98;4.97;;;20.40;94.40;;;;;;5053451;28;20041;-53
2023/06/15 09:12:59;;;;;;;14.40;5.55;;;20.50;94.50;;;;;;5053944;28;20379;-52
2023/06/15 09:15:27;;;;;;;14.07;4.82;;;20.60;94.60;;;;;;5053576;28;20045;-50
2023/06/15 09:17:53;;;;;;;15.57;4.78;;;20.70;94.70;;;;;;5053505;28;20064;-53
2023/06/15 09:20:20;;;;;;;17.55;4.55;;;20.80;94.30;;;;;;5053739;28;20053;-53
2023/06/15 09:22:47;;;;;;;13.27;5.35;;;20.80;94.30;;;;;;5053651;28;20041;-55
2023/06/15 09:25:16;;;;;;;10.55;4.35;;;20.90;93.60;;;;;;5053629;28;20037;-50
2023/06/15 09:27:43;;;;;;;12.75;4.97;;;21.00;93.90;;;;;;5053878;28;20029;-48
2023/06/15 09:30:12;;;;;;;11.80;5.40;;;21.10;94.00;;;;;;5053511;28;20045;-52
2023/06/15 09:32:40;;;;;;;16.20;5.30;;;21.10;93.60;;;;;;5053461;28;20404;-50
2023/06/15 09:35:08;;;;;;;13.35;5.00;;;21.10;93.50;;;;;;5053692;28;20037;-54
2023/06/15 09:37:37;;;;;;;15.13;4.65;;;21.20;93.60;;;;;;5053669;28;20145;-50
2023/06/15 09:40:04;;;;;;;14.60;4.78;;;21.20;93.70;;;;;;5053671;28;20466;-48
2023/06/15 09:42:31;;;;;;;12.05;4.90;;;21.30;93.60;;;;;;5053349;28;20095;-48
2023/06/15 09:44:58;;;;;;;15.35;5.90;;;21.30;93.60;;;;;;5053711;28;20041;-53
2023/06/15 09:47:25;;;;;;;14.75;4.80;;;21.40;93.10;;;;;;5053166;28;20049;-49
2023/06/15 09:49:52;;;;;;;11.95;4.93;;;21.50;93.00;;;;;;5053271;28;20116;-46
2023/06/15 09:52:20;;;;;;;13.63;4.35;;;21.50;92.50;;;;;;5051786;28;20116;-49
2023/06/15 09:54:46;;;;;;;12.50;4.88;;;21.60;92.80;;;;;;5053030;28;20045;-50
2023/06/15 09:57:14;;;;;;;11.00;4.15;;;21.80;92.70;;;;;;5053416;28;20068;-47
2023/06/15 09:59:41;;;;;;;12.85;4.25;;;21.80;92.00;;;;;;5053159;28;20490;-48
2023/06/15 10:02:07;;;;;;;12.70;4.43;;;21.90;92.10;;;;;;5053346;28;20040;-49
2023/06/15 10:04:35;;;;;;;9.77;3.92;;;22.00;92.10;;;;;;5052962;28;20060;-49
2023/06/15 10:07:02;;;;;;;10.80;4.32;;;22.10;91.90;;;;;;5053519;28;20033;-52
2023/06/15 10:09:28;;;;;;;10.68;4.10;;;22.10;91.90;;;;;;5052092;28;20045;-50
2023/06/15 10:11:55;;;;;;;15.55;4.22;;;22.10;90.90;;;;;;5051588;28;20484;-52
2023/06/15 10:14:22;;;;;;;10.10;3.70;;;22.20;90.80;;;;;;5053118;28;20094;-53
2023/06/15 10:16:49;;;;;;;10.05;3.88;;;22.30;90.50;;;;;;5068617;28;20144;-51
2023/06/15 10:19:16;;;;;;;12.48;4.15;;;22.50;90.90;;;;;;5053255;28;20044;-51
2023/06/15 10:21:43;;;;;;;11.10;4.15;;;22.50;90.00;;;;;;5052131;28;20045;-53
2023/06/15 10:24:09;;;;;;;13.85;4.38;;;22.50;90.20;;;;;;5052967;28;20041;-55
2023/06/15 10:26:36;;;;;;;10.23;4.30;;;22.50;90.60;;;;;;5052803;28;20041;-54
2023/06/15 10:29:03;;;;;;;8.35;4.07;;;22.50;90.30;;;;;;5054621;28;20053;-55
2023/06/15 10:31:30;;;;;;;11.15;4.10;;;22.60;89.10;;;;;;5056776;28;20060;-52
2023/06/15 10:33:57;;;;;;;11.10;3.75;;;22.70;89.30;;;;;;5056699;28;20045;-51
2023/06/15 10:36:24;;;;;;;8.68;3.60;;;22.70;88.10;;;;;;5056741;28;20061;-50
2023/06/15 10:38:51;;;;;;;13.30;3.83;;;22.80;88.20;;;;;;5056271;28;20044;-51
2023/06/15 10:41:18;;;;;;;9.02;3.20;;;22.90;86.50;;;;;;5056500;28;20037;-51
2023/06/15 10:43:44;;;;;;;9.43;3.58;;;23.00;87.00;;;;;;5055907;28;20049;-52
2023/06/15 10:46:13;;;;;;;6.88;3.08;;;23.00;85.00;;;;;;5056414;28;20037;-48
2023/06/15 10:48:40;;;;;;;11.18;3.22;;;23.00;85.10;;;;;;5056460;28;20040;-52
2023/06/15 10:51:10;;;;;;;9.15;3.28;;;23.10;85.10;;;;;;5056227;28;20037;-56
2023/06/15 10:53:40;;;;;;;8.23;3.30;;;23.10;85.60;;;;;;5055975;28;20041;-53
2023/06/15 10:56:07;;;;;;;9.48;3.15;;;23.20;84.30;;;;;;5056038;28;20071;-47
2023/06/15 10:58:34;;;;;;;7.45;3.50;;;23.30;84.40;;;;;;5055984;28;20545;-52
2023/06/15 11:01:01;;;;;;;5.68;2.90;;;23.30;84.60;;;;;;5055853;28;20041;-50
2023/06/15 11:03:27;;;;;;;9.10;3.40;;;23.30;83.90;;;;;;5055912;28;20041;-49
2023/06/15 11:05:55;;;;;;;9.43;3.08;;;23.40;83.20;;;;;;5055875;28;20041;-49
2023/06/15 11:08:22;;;;;;;8.15;2.97;;;23.40;83.10;;;;;;5055948;28;20155;-50
2023/06/15 11:10:48;;;;;;;7.82;2.97;;;23.40;82.60;;;;;;5056040;28;20045;-50
2023/06/15 11:13:15;;;;;;;9.45;3.13;;;23.50;82.10;;;;;;5055322;28;20522;-47
2023/06/15 11:15:42;;;;;;;4.85;2.88;;;23.50;82.50;;;;;;5055776;28;20041;-49
2023/06/15 11:18:11;;;;;;;7.57;2.47;;;23.60;81.70;;;;;;5055706;28;20553;-48
2023/06/15 11:20:44;;;;;;;8.88;2.42;;;23.80;81.50;;;;;;5055525;28;20041;-50
2023/06/15 11:23:11;;;;;;;5.07;2.55;;;24.00;81.20;;;;;;5055796;28;20444;-49
2023/06/15 11:25:41;;;;;;;10.27;3.15;;;24.10;80.10;;;;;;5055583;28;20052;-52
2023/06/15 11:28:09;;;;;;;8.65;2.60;;;24.30;78.60;;;;;;5055713;28;20464;-54
2023/06/15 11:30:45;;;;;;;5.82;2.50;;;24.20;78.30;;;;;;5055633;28;20556;-54
2023/06/15 11:33:12;;;;;;;6.28;2.22;;;24.20;78.60;;;;;;5055185;28;20045;-51
2023/06/15 11:35:39;;;;;;;7.10;2.53;;;24.30;78.70;;;;;;5055783;28;20061;-50
2023/06/15 11:38:07;;;;;;;11.38;2.58;;;24.40;76.60;;;;;;5055409;28;20052;-49
2023/06/15 11:40:34;;;;;;;7.55;2.28;;;24.50;76.40;;;;;;5055297;28;20526;-49
2023/06/15 11:43:01;;;;;;;4.47;2.60;;;24.50;76.90;;;;;;5054879;28;20463;-51
2023/06/15 11:45:27;;;;;;;7.07;2.50;;;24.60;77.20;;;;;;5055239;28;20041;-51
2023/06/15 11:47:54;;;;;;;6.20;2.10;;;24.60;76.10;;;;;;5055009;28;20399;-50
2023/06/15 11:50:22;;;;;;;2.60;1.90;;;24.50;75.90;;;;;;5054905;28;20080;-51
2023/06/15 11:52:49;;;;;;;4.60;2.35;;;24.60;77.00;;;;;;5054587;28;20588;-51
2023/06/15 11:55:16;;;;;;;8.55;2.05;;;24.70;75.50;;;;;;5055230;28;20433;-49
2023/06/15 11:57:43;;;;;;;7.00;2.00;;;24.80;75.90;;;;;;5054522;28;20122;-51
2023/06/15 12:00:13;;;;;;;2.92;1.83;;;24.90;75.40;;;;;;5055144;28;20472;-52
2023/06/15 12:02:41;;;;;;;5.10;2.38;;;25.00;75.20;;;;;;5054869;28;20476;-52
2023/06/15 12:05:09;;;;;;;11.43;3.05;;;25.00;75.30;;;;;;5054754;28;20037;-49
2023/06/15 12:07:37;;;;;;;7.78;2.58;;;25.00;75.30;;;;;;5054858;28;20041;-50
2023/06/15 12:10:04;;;;;;;7.80;2.58;;;25.00;75.70;;;;;;5055101;28;20059;-49
2023/06/15 12:12:31;;;;;;;6.50;2.40;;;25.00;76.40;;;;;;5054426;28;20127;-52
2023/06/15 12:14:57;;;;;;;5.57;2.40;;;25.10;76.80;;;;;;5054606;28;20106;-51
2023/06/15 12:17:24;;;;;;;8.30;3.00;;;25.20;75.60;;;;;;5054819;28;20440;-51
2023/06/15 12:19:51;;;;;;;8.27;2.38;;;25.20;75.20;;;;;;5054544;28;20049;-51
2023/06/15 12:22:18;;;;;;;7.15;2.67;;;25.10;75.00;;;;;;5054113;28;20041;-52
2023/06/15 12:25:03;;;;;;;4.32;2.08;;;25.20;75.70;;;;;;5054596;28;20423;-51
2023/06/15 12:27:31;;;;;;;5.78;2.05;;;25.40;75.10;;;;;;5054252;28;20387;-53
2023/06/15 12:29:58;;;;;;;7.40;2.20;;;25.60;74.90;;;;;;5054395;28;20045;-50
2023/06/15 12:32:25;;;;;;;7.97;2.40;;;25.70;74.40;;;;;;5054228;28;20033;-50
2023/06/15 12:34:51;;;;;;;5.18;2.22;;;25.90;74.80;;;;;;5053880;28;20514;-50
2023/06/15 12:37:18;;;;;;;5.75;2.55;;;26.00;74.00;;;;;;5054109;28;20049;-51
2023/06/15 12:39:45;;;;;;;9.10;2.40;;;25.90;73.00;;;;;;5052944;28;20045;-49
2023/06/15 12:42:12;;;;;;;6.78;2.13;;;25.80;74.20;;;;;;5053952;28;20053;-51